sensor_id;sensor_type;location;lat;lon;timestamp;P1;durP1;ratioP1;P2;durP2;ratioP2
14892;SDS011;7538;53.626;9.906;2022-09-09T00:00:11;227.43;;;59.53;;
14892;SDS011;7538;53.626;9.906;2022-09-09T00:02:39;224.23;;;58.42;;
14892;SDS011;7538;53.626;9.906;2022-09-09T00:05:12;473.40;;;82.65;;
14892;SDS011;7538;53.626;9.906;2022-09-09T00:07:46;274.50;;;68.43;;
14892;SDS011;7538;53.626;9.906;2022-09-09T00:10:16;512.15;;;86.95;;
14892;SDS011;7538;53.626;9.906;2022-09-09T00:12:51;352.77;;;70.53;;
14892;SDS011;7538;53.626;9.906;2022-09-09T00:15:26;244.65;;;63.30;;
14892;SDS011;7538;53.626;9.906;2022-09-09T00:17:57;204.77;;;57.55;;
14892;SDS011;7538;53.626;9.906;2022-09-09T00:20:35;391.13;;;76.70;;
14892;SDS011;7538;53.626;9.906;2022-09-09T00:23:12;387.55;;;74.80;;
14892;SDS011;7538;53.626;9.906;2022-09-09T00:25:46;583.13;;;92.65;;
14892;SDS011;7538;53.626;9.906;2022-09-09T00:28:22;424.42;;;80.15;;
14892;SDS011;7538;53.626;9.906;2022-09-09T00:30:51;376.50;;;73.65;;
14892;SDS011;7538;53.626;9.906;2022-09-09T00:33:20;388.85;;;73.85;;
14892;SDS011;7538;53.626;9.906;2022-09-09T00:35:51;422.05;;;82.20;;
14892;SDS011;7538;53.626;9.906;2022-09-09T00:38:23;590.13;;;92.32;;
14892;SDS011;7538;53.626;9.906;2022-09-09T00:40:55;473.85;;;83.28;;
14892;SDS011;7538;53.626;9.906;2022-09-09T00:43:28;413.95;;;75.60;;
14892;SDS011;7538;53.626;9.906;2022-09-09T00:46:05;514.33;;;85.28;;
14892;SDS011;7538;53.626;9.906;2022-09-09T00:48:46;561.42;;;90.72;;
14892;SDS011;7538;53.626;9.906;2022-09-09T00:51:24;422.10;;;79.60;;
14892;SDS011;7538;53.626;9.906;2022-09-09T00:54:03;517.50;;;90.03;;
14892;SDS011;7538;53.626;9.906;2022-09-09T00:56:42;504.70;;;88.75;;
14892;SDS011;7538;53.626;9.906;2022-09-09T00:59:21;548.35;;;91.30;;
14892;SDS011;7538;53.626;9.906;2022-09-09T01:01:52;309.00;;;67.30;;
14892;SDS011;7538;53.626;9.906;2022-09-09T01:04:24;489.85;;;88.70;;
14892;SDS011;7538;53.626;9.906;2022-09-09T01:06:59;506.52;;;93.85;;
14892;SDS011;7538;53.626;9.906;2022-09-09T01:09:34;245.45;;;68.32;;
14892;SDS011;7538;53.626;9.906;2022-09-09T01:12:09;465.52;;;85.97;;
14892;SDS011;7538;53.626;9.906;2022-09-09T01:14:41;434.25;;;85.20;;
14892;SDS011;7538;53.626;9.906;2022-09-09T01:17:13;444.50;;;91.00;;
14892;SDS011;7538;53.626;9.906;2022-09-09T01:19:50;433.48;;;88.28;;
14892;SDS011;7538;53.626;9.906;2022-09-09T01:22:32;174.75;;;59.10;;
14892;SDS011;7538;53.626;9.906;2022-09-09T01:28:25;478.52;;;86.05;;
14892;SDS011;7538;53.626;9.906;2022-09-09T01:30:53;510.80;;;94.25;;
14892;SDS011;7538;53.626;9.906;2022-09-09T01:33:22;584.65;;;99.15;;
14892;SDS011;7538;53.626;9.906;2022-09-09T01:35:50;509.80;;;94.28;;
14892;SDS011;7538;53.626;9.906;2022-09-09T01:38:20;498.08;;;90.28;;
14892;SDS011;7538;53.626;9.906;2022-09-09T01:40:49;455.67;;;84.60;;
14892;SDS011;7538;53.626;9.906;2022-09-09T01:43:18;477.67;;;87.03;;
14892;SDS011;7538;53.626;9.906;2022-09-09T01:45:46;306.10;;;62.50;;
14892;SDS011;7538;53.626;9.906;2022-09-09T01:48:14;259.50;;;61.20;;
14892;SDS011;7538;53.626;9.906;2022-09-09T01:50:42;688.65;;;101.32;;
14892;SDS011;7538;53.626;9.906;2022-09-09T01:53:12;327.75;;;70.05;;
14892;SDS011;7538;53.626;9.906;2022-09-09T01:55:42;387.55;;;76.05;;
14892;SDS011;7538;53.626;9.906;2022-09-09T01:58:20;481.42;;;79.72;;
14892;SDS011;7538;53.626;9.906;2022-09-09T02:00:56;539.00;;;91.88;;
14892;SDS011;7538;53.626;9.906;2022-09-09T02:03:31;530.97;;;88.97;;
14892;SDS011;7538;53.626;9.906;2022-09-09T02:06:00;447.73;;;84.32;;
14892;SDS011;7538;53.626;9.906;2022-09-09T02:08:39;212.15;;;60.83;;
14892;SDS011;7538;53.626;9.906;2022-09-09T02:11:11;344.33;;;71.60;;
14892;SDS011;7538;53.626;9.906;2022-09-09T02:13:42;392.75;;;78.10;;
14892;SDS011;7538;53.626;9.906;2022-09-09T02:16:12;198.38;;;55.33;;
14892;SDS011;7538;53.626;9.906;2022-09-09T02:18:46;319.30;;;67.10;;
14892;SDS011;7538;53.626;9.906;2022-09-09T02:21:17;229.70;;;59.90;;
14892;SDS011;7538;53.626;9.906;2022-09-09T02:23:44;345.85;;;71.20;;
14892;SDS011;7538;53.626;9.906;2022-09-09T02:26:17;217.73;;;57.25;;
14892;SDS011;7538;53.626;9.906;2022-09-09T02:28:48;394.35;;;76.18;;
14892;SDS011;7538;53.626;9.906;2022-09-09T02:31:20;400.35;;;76.63;;
14892;SDS011;7538;53.626;9.906;2022-09-09T02:33:51;315.75;;;66.78;;
14892;SDS011;7538;53.626;9.906;2022-09-09T02:36:21;452.80;;;75.60;;
14892;SDS011;7538;53.626;9.906;2022-09-09T02:38:50;469.42;;;78.78;;
14892;SDS011;7538;53.626;9.906;2022-09-09T02:41:19;347.35;;;71.35;;
14892;SDS011;7538;53.626;9.906;2022-09-09T02:43:52;415.98;;;76.00;;
14892;SDS011;7538;53.626;9.906;2022-09-09T02:46:24;131.77;;;43.42;;
14892;SDS011;7538;53.626;9.906;2022-09-09T02:49:04;181.30;;;49.88;;
14892;SDS011;7538;53.626;9.906;2022-09-09T02:51:40;150.15;;;45.92;;
14892;SDS011;7538;53.626;9.906;2022-09-09T02:54:20;305.55;;;58.67;;
14892;SDS011;7538;53.626;9.906;2022-09-09T02:56:53;336.33;;;59.53;;
14892;SDS011;7538;53.626;9.906;2022-09-09T02:59:22;334.17;;;58.75;;
14892;SDS011;7538;53.626;9.906;2022-09-09T03:01:51;190.68;;;51.30;;
14892;SDS011;7538;53.626;9.906;2022-09-09T03:04:18;476.02;;;74.60;;
14892;SDS011;7538;53.626;9.906;2022-09-09T03:06:45;444.90;;;70.20;;
14892;SDS011;7538;53.626;9.906;2022-09-09T03:09:12;440.52;;;67.63;;
14892;SDS011;7538;53.626;9.906;2022-09-09T03:11:39;250.45;;;54.25;;
14892;SDS011;7538;53.626;9.906;2022-09-09T03:14:06;122.82;;;45.35;;
14892;SDS011;7538;53.626;9.906;2022-09-09T03:16:34;121.13;;;42.58;;
14892;SDS011;7538;53.626;9.906;2022-09-09T03:19:01;478.15;;;69.50;;
14892;SDS011;7538;53.626;9.906;2022-09-09T03:21:28;118.88;;;42.63;;
14892;SDS011;7538;53.626;9.906;2022-09-09T03:23:58;150.57;;;48.15;;
14892;SDS011;7538;53.626;9.906;2022-09-09T03:26:25;214.25;;;54.85;;
14892;SDS011;7538;53.626;9.906;2022-09-09T03:28:52;305.88;;;56.30;;
14892;SDS011;7538;53.626;9.906;2022-09-09T03:31:19;225.05;;;57.30;;
14892;SDS011;7538;53.626;9.906;2022-09-09T03:33:47;120.10;;;43.55;;
14892;SDS011;7538;53.626;9.906;2022-09-09T03:36:14;150.65;;;47.83;;
14892;SDS011;7538;53.626;9.906;2022-09-09T03:38:41;113.47;;;39.72;;
14892;SDS011;7538;53.626;9.906;2022-09-09T03:41:08;93.85;;;39.67;;
14892;SDS011;7538;53.626;9.906;2022-09-09T03:43:35;193.68;;;52.65;;
14892;SDS011;7538;53.626;9.906;2022-09-09T03:46:02;139.43;;;43.60;;
14892;SDS011;7538;53.626;9.906;2022-09-09T03:48:30;110.32;;;37.42;;
14892;SDS011;7538;53.626;9.906;2022-09-09T03:50:58;103.03;;;37.20;;
14892;SDS011;7538;53.626;9.906;2022-09-09T03:53:26;237.90;;;56.60;;
14892;SDS011;7538;53.626;9.906;2022-09-09T03:55:55;138.85;;;42.95;;
14892;SDS011;7538;53.626;9.906;2022-09-09T03:58:24;193.85;;;49.13;;
14892;SDS011;7538;53.626;9.906;2022-09-09T04:00:55;133.23;;;42.33;;
14892;SDS011;7538;53.626;9.906;2022-09-09T04:03:24;88.07;;;37.55;;
14892;SDS011;7538;53.626;9.906;2022-09-09T04:16:09;177.32;;;49.42;;
14892;SDS011;7538;53.626;9.906;2022-09-09T04:18:38;162.07;;;48.00;;
14892;SDS011;7538;53.626;9.906;2022-09-09T04:21:05;107.00;;;38.25;;
14892;SDS011;7538;53.626;9.906;2022-09-09T04:23:38;163.93;;;45.17;;
14892;SDS011;7538;53.626;9.906;2022-09-09T04:26:05;148.32;;;44.75;;
14892;SDS011;7538;53.626;9.906;2022-09-09T04:28:33;222.00;;;53.00;;
14892;SDS011;7538;53.626;9.906;2022-09-09T04:31:04;191.18;;;49.08;;
14892;SDS011;7538;53.626;9.906;2022-09-09T04:33:35;75.15;;;34.08;;
14892;SDS011;7538;53.626;9.906;2022-09-09T04:36:03;131.35;;;40.45;;
14892;SDS011;7538;53.626;9.906;2022-09-09T04:38:30;65.93;;;31.98;;
14892;SDS011;7538;53.626;9.906;2022-09-09T04:40:57;74.80;;;32.22;;
14892;SDS011;7538;53.626;9.906;2022-09-09T04:43:24;191.82;;;47.45;;
14892;SDS011;7538;53.626;9.906;2022-09-09T04:45:52;67.63;;;32.97;;
14892;SDS011;7538;53.626;9.906;2022-09-09T04:48:19;167.32;;;45.92;;
14892;SDS011;7538;53.626;9.906;2022-09-09T04:50:55;122.57;;;41.40;;
14892;SDS011;7538;53.626;9.906;2022-09-09T04:53:22;155.23;;;44.88;;
14892;SDS011;7538;53.626;9.906;2022-09-09T04:55:52;125.30;;;43.15;;
14892;SDS011;7538;53.626;9.906;2022-09-09T04:58:27;207.23;;;49.22;;
14892;SDS011;7538;53.626;9.906;2022-09-09T05:00:54;125.43;;;38.78;;
14892;SDS011;7538;53.626;9.906;2022-09-09T05:03:21;94.53;;;34.85;;
14892;SDS011;7538;53.626;9.906;2022-09-09T05:05:48;114.70;;;38.83;;
14892;SDS011;7538;53.626;9.906;2022-09-09T05:08:16;166.18;;;44.20;;
14892;SDS011;7538;53.626;9.906;2022-09-09T05:10:44;127.53;;;39.70;;
14892;SDS011;7538;53.626;9.906;2022-09-09T05:13:16;185.45;;;45.28;;
14892;SDS011;7538;53.626;9.906;2022-09-09T05:15:50;66.10;;;32.63;;
14892;SDS011;7538;53.626;9.906;2022-09-09T05:18:18;129.73;;;41.85;;
14892;SDS011;7538;53.626;9.906;2022-09-09T05:20:45;118.43;;;38.80;;
14892;SDS011;7538;53.626;9.906;2022-09-09T05:23:12;62.47;;;30.52;;
14892;SDS011;7538;53.626;9.906;2022-09-09T05:25:41;162.93;;;46.17;;
14892;SDS011;7538;53.626;9.906;2022-09-09T05:28:08;155.20;;;42.30;;
14892;SDS011;7538;53.626;9.906;2022-09-09T05:30:36;48.53;;;27.45;;
14892;SDS011;7538;53.626;9.906;2022-09-09T05:33:03;112.30;;;36.63;;
14892;SDS011;7538;53.626;9.906;2022-09-09T05:35:34;173.05;;;44.88;;
14892;SDS011;7538;53.626;9.906;2022-09-09T05:38:03;172.00;;;45.35;;
14892;SDS011;7538;53.626;9.906;2022-09-09T05:40:30;109.85;;;35.78;;
14892;SDS011;7538;53.626;9.906;2022-09-09T05:43:00;65.93;;;29.65;;
14892;SDS011;7538;53.626;9.906;2022-09-09T05:45:28;184.55;;;44.47;;
14892;SDS011;7538;53.626;9.906;2022-09-09T05:47:55;126.93;;;40.40;;
14892;SDS011;7538;53.626;9.906;2022-09-09T05:50:22;126.80;;;39.53;;
14892;SDS011;7538;53.626;9.906;2022-09-09T05:52:49;134.75;;;40.33;;
14892;SDS011;7538;53.626;9.906;2022-09-09T05:55:16;241.02;;;51.80;;
14892;SDS011;7538;53.626;9.906;2022-09-09T05:57:47;161.23;;;40.00;;
14892;SDS011;7538;53.626;9.906;2022-09-09T06:00:18;158.85;;;42.38;;
14892;SDS011;7538;53.626;9.906;2022-09-09T06:02:50;93.82;;;33.83;;
14892;SDS011;7538;53.626;9.906;2022-09-09T06:05:18;184.32;;;45.13;;
14892;SDS011;7538;53.626;9.906;2022-09-09T06:07:47;107.38;;;35.50;;
14892;SDS011;7538;53.626;9.906;2022-09-09T06:10:15;91.15;;;30.73;;
14892;SDS011;7538;53.626;9.906;2022-09-09T06:12:42;83.80;;;28.85;;
14892;SDS011;7538;53.626;9.906;2022-09-09T06:15:10;72.15;;;29.23;;
14892;SDS011;7538;53.626;9.906;2022-09-09T06:17:38;93.07;;;30.30;;
14892;SDS011;7538;53.626;9.906;2022-09-09T06:20:07;83.55;;;29.80;;
14892;SDS011;7538;53.626;9.906;2022-09-09T06:22:35;29.85;;;19.42;;
14892;SDS011;7538;53.626;9.906;2022-09-09T06:25:02;55.00;;;22.55;;
14892;SDS011;7538;53.626;9.906;2022-09-09T06:27:29;32.40;;;18.30;;
14892;SDS011;7538;53.626;9.906;2022-09-09T06:29:58;25.13;;;14.93;;
14892;SDS011;7538;53.626;9.906;2022-09-09T06:32:25;38.17;;;18.70;;
14892;SDS011;7538;53.626;9.906;2022-09-09T06:34:54;52.75;;;19.13;;
14892;SDS011;7538;53.626;9.906;2022-09-09T06:37:20;19.75;;;12.05;;
14892;SDS011;7538;53.626;9.906;2022-09-09T06:39:49;28.20;;;14.45;;
14892;SDS011;7538;53.626;9.906;2022-09-09T06:42:16;37.25;;;18.15;;
14892;SDS011;7538;53.626;9.906;2022-09-09T06:44:43;21.95;;;12.77;;
14892;SDS011;7538;53.626;9.906;2022-09-09T06:47:10;29.40;;;15.98;;
14892;SDS011;7538;53.626;9.906;2022-09-09T06:49:38;28.05;;;14.88;;
14892;SDS011;7538;53.626;9.906;2022-09-09T06:52:06;42.72;;;17.58;;
14892;SDS011;7538;53.626;9.906;2022-09-09T06:54:34;31.58;;;15.35;;
14892;SDS011;7538;53.626;9.906;2022-09-09T06:57:02;108.15;;;23.38;;
14892;SDS011;7538;53.626;9.906;2022-09-09T06:59:32;28.15;;;16.65;;
14892;SDS011;7538;53.626;9.906;2022-09-09T07:01:59;16.60;;;14.80;;
14892;SDS011;7538;53.626;9.906;2022-09-09T07:04:26;243.43;;;23.75;;
14892;SDS011;7538;53.626;9.906;2022-09-09T07:06:53;62.83;;;18.80;;
14892;SDS011;7538;53.626;9.906;2022-09-09T07:09:22;11.73;;;8.43;;
14892;SDS011;7538;53.626;9.906;2022-09-09T07:11:49;35.75;;;14.85;;
14892;SDS011;7538;53.626;9.906;2022-09-09T07:14:17;25.80;;;11.95;;
14892;SDS011;7538;53.626;9.906;2022-09-09T07:16:46;13.05;;;7.68;;
14892;SDS011;7538;53.626;9.906;2022-09-09T07:19:13;26.40;;;11.43;;
14892;SDS011;7538;53.626;9.906;2022-09-09T07:21:41;14.55;;;9.30;;
14892;SDS011;7538;53.626;9.906;2022-09-09T07:24:09;17.20;;;9.32;;
14892;SDS011;7538;53.626;9.906;2022-09-09T07:26:38;23.10;;;10.45;;
14892;SDS011;7538;53.626;9.906;2022-09-09T07:29:05;16.00;;;8.75;;
14892;SDS011;7538;53.626;9.906;2022-09-09T07:31:33;19.95;;;10.43;;
14892;SDS011;7538;53.626;9.906;2022-09-09T07:34:05;15.77;;;9.27;;
14892;SDS011;7538;53.626;9.906;2022-09-09T07:36:34;14.43;;;9.45;;
14892;SDS011;7538;53.626;9.906;2022-09-09T07:39:03;17.23;;;8.75;;
14892;SDS011;7538;53.626;9.906;2022-09-09T07:41:32;24.00;;;11.25;;
14892;SDS011;7538;53.626;9.906;2022-09-09T07:44:03;14.85;;;8.90;;
14892;SDS011;7538;53.626;9.906;2022-09-09T07:46:31;12.65;;;8.65;;
14892;SDS011;7538;53.626;9.906;2022-09-09T07:48:59;15.88;;;9.55;;
14892;SDS011;7538;53.626;9.906;2022-09-09T07:51:28;11.80;;;8.43;;
14892;SDS011;7538;53.626;9.906;2022-09-09T07:54:05;37.10;;;11.32;;
14892;SDS011;7538;53.626;9.906;2022-09-09T07:56:34;80.57;;;16.65;;
14892;SDS011;7538;53.626;9.906;2022-09-09T07:59:03;14.20;;;8.40;;
14892;SDS011;7538;53.626;9.906;2022-09-09T08:01:32;12.43;;;9.73;;
14892;SDS011;7538;53.626;9.906;2022-09-09T08:04:02;14.38;;;9.50;;
14892;SDS011;7538;53.626;9.906;2022-09-09T08:06:35;15.38;;;9.57;;
14892;SDS011;7538;53.626;9.906;2022-09-09T08:09:04;15.15;;;9.40;;
14892;SDS011;7538;53.626;9.906;2022-09-09T08:11:33;17.13;;;8.82;;
14892;SDS011;7538;53.626;9.906;2022-09-09T08:14:01;15.23;;;8.75;;
14892;SDS011;7538;53.626;9.906;2022-09-09T08:16:31;22.92;;;11.50;;
14892;SDS011;7538;53.626;9.906;2022-09-09T08:19:01;13.50;;;10.27;;
14892;SDS011;7538;53.626;9.906;2022-09-09T08:21:30;20.05;;;10.68;;
14892;SDS011;7538;53.626;9.906;2022-09-09T08:23:58;12.77;;;9.82;;
14892;SDS011;7538;53.626;9.906;2022-09-09T08:26:27;12.10;;;10.10;;
14892;SDS011;7538;53.626;9.906;2022-09-09T08:28:55;13.38;;;10.85;;
14892;SDS011;7538;53.626;9.906;2022-09-09T08:31:27;13.50;;;9.63;;
14892;SDS011;7538;53.626;9.906;2022-09-09T08:33:56;11.95;;;8.93;;
14892;SDS011;7538;53.626;9.906;2022-09-09T08:36:25;11.32;;;7.78;;
14892;SDS011;7538;53.626;9.906;2022-09-09T08:38:54;7.95;;;5.40;;
14892;SDS011;7538;53.626;9.906;2022-09-09T08:41:27;6.30;;;5.30;;
14892;SDS011;7538;53.626;9.906;2022-09-09T08:44:28;8.98;;;5.75;;
14892;SDS011;7538;53.626;9.906;2022-09-09T08:47:08;6.38;;;5.28;;
14892;SDS011;7538;53.626;9.906;2022-09-09T08:52:40;5.88;;;4.93;;
14892;SDS011;7538;53.626;9.906;2022-09-09T08:55:18;6.25;;;4.55;;
14892;SDS011;7538;53.626;9.906;2022-09-09T08:57:49;6.72;;;4.97;;
14892;SDS011;7538;53.626;9.906;2022-09-09T09:00:20;5.85;;;4.32;;
14892;SDS011;7538;53.626;9.906;2022-09-09T09:02:51;5.10;;;4.57;;
14892;SDS011;7538;53.626;9.906;2022-09-09T09:05:27;7.80;;;4.72;;
14892;SDS011;7538;53.626;9.906;2022-09-09T09:08:00;5.25;;;4.63;;
14892;SDS011;7538;53.626;9.906;2022-09-09T09:10:37;5.50;;;5.00;;
14892;SDS011;7538;53.626;9.906;2022-09-09T09:13:13;6.68;;;4.43;;
14892;SDS011;7538;53.626;9.906;2022-09-09T09:15:43;5.65;;;4.38;;
14892;SDS011;7538;53.626;9.906;2022-09-09T09:18:14;6.65;;;3.58;;
14892;SDS011;7538;53.626;9.906;2022-09-09T09:20:47;6.22;;;4.03;;
14892;SDS011;7538;53.626;9.906;2022-09-09T09:23:21;4.57;;;4.03;;
14892;SDS011;7538;53.626;9.906;2022-09-09T09:25:52;5.25;;;3.80;;
14892;SDS011;7538;53.626;9.906;2022-09-09T09:28:25;6.13;;;3.88;;
14892;SDS011;7538;53.626;9.906;2022-09-09T09:30:54;5.05;;;3.72;;
14892;SDS011;7538;53.626;9.906;2022-09-09T09:33:26;7.25;;;3.53;;
14892;SDS011;7538;53.626;9.906;2022-09-09T09:35:56;3.10;;;2.70;;
14892;SDS011;7538;53.626;9.906;2022-09-09T09:38:25;3.67;;;3.35;;
14892;SDS011;7538;53.626;9.906;2022-09-09T09:40:53;5.95;;;3.22;;
14892;SDS011;7538;53.626;9.906;2022-09-09T09:43:24;3.25;;;2.45;;
14892;SDS011;7538;53.626;9.906;2022-09-09T09:45:53;3.53;;;2.42;;
14892;SDS011;7538;53.626;9.906;2022-09-09T09:48:20;4.47;;;2.35;;
14892;SDS011;7538;53.626;9.906;2022-09-09T09:50:50;6.53;;;2.53;;
14892;SDS011;7538;53.626;9.906;2022-09-09T09:53:20;5.03;;;2.20;;
14892;SDS011;7538;53.626;9.906;2022-09-09T09:55:52;2.13;;;1.90;;
14892;SDS011;7538;53.626;9.906;2022-09-09T09:58:22;3.55;;;2.28;;
14892;SDS011;7538;53.626;9.906;2022-09-09T10:00:51;4.03;;;1.92;;
14892;SDS011;7538;53.626;9.906;2022-09-09T10:03:24;3.25;;;1.85;;
14892;SDS011;7538;53.626;9.906;2022-09-09T10:05:54;2.72;;;1.52;;
14892;SDS011;7538;53.626;9.906;2022-09-09T10:08:23;3.38;;;1.30;;
14892;SDS011;7538;53.626;9.906;2022-09-09T10:11:00;2.38;;;1.40;;
14892;SDS011;7538;53.626;9.906;2022-09-09T10:13:36;3.10;;;1.60;;
14892;SDS011;7538;53.626;9.906;2022-09-09T10:16:18;3.60;;;1.60;;
14892;SDS011;7538;53.626;9.906;2022-09-09T10:18:58;3.35;;;1.70;;
14892;SDS011;7538;53.626;9.906;2022-09-09T10:21:41;1.88;;;1.35;;
14892;SDS011;7538;53.626;9.906;2022-09-09T10:27:43;3.40;;;1.73;;
14892;SDS011;7538;53.626;9.906;2022-09-09T10:30:16;2.83;;;1.70;;
14892;SDS011;7538;53.626;9.906;2022-09-09T10:32:48;3.63;;;1.80;;
14892;SDS011;7538;53.626;9.906;2022-09-09T10:35:29;3.40;;;1.67;;
14892;SDS011;7538;53.626;9.906;2022-09-09T10:38:05;5.05;;;1.88;;
14892;SDS011;7538;53.626;9.906;2022-09-09T10:40:41;3.95;;;1.98;;
14892;SDS011;7538;53.626;9.906;2022-09-09T10:43:13;2.45;;;1.40;;
14892;SDS011;7538;53.626;9.906;2022-09-09T10:45:54;3.65;;;1.67;;
14892;SDS011;7538;53.626;9.906;2022-09-09T10:48:31;3.00;;;1.70;;
14892;SDS011;7538;53.626;9.906;2022-09-09T10:51:14;1.40;;;1.30;;
14892;SDS011;7538;53.626;9.906;2022-09-09T10:53:52;3.58;;;1.70;;
14892;SDS011;7538;53.626;9.906;2022-09-09T10:56:28;3.58;;;1.77;;
14892;SDS011;7538;53.626;9.906;2022-09-09T10:58:58;2.63;;;1.80;;
14892;SDS011;7538;53.626;9.906;2022-09-09T11:01:32;4.63;;;1.90;;
14892;SDS011;7538;53.626;9.906;2022-09-09T11:04:05;3.22;;;1.70;;
14892;SDS011;7538;53.626;9.906;2022-09-09T11:06:39;2.67;;;1.70;;
14892;SDS011;7538;53.626;9.906;2022-09-09T11:09:13;5.72;;;1.80;;
14892;SDS011;7538;53.626;9.906;2022-09-09T11:11:44;4.13;;;2.20;;
14892;SDS011;7538;53.626;9.906;2022-09-09T11:14:19;2.47;;;1.65;;
14892;SDS011;7538;53.626;9.906;2022-09-09T11:16:52;5.20;;;1.90;;
14892;SDS011;7538;53.626;9.906;2022-09-09T11:19:24;4.00;;;2.00;;
14892;SDS011;7538;53.626;9.906;2022-09-09T11:21:57;3.17;;;1.88;;
14892;SDS011;7538;53.626;9.906;2022-09-09T11:24:29;6.55;;;2.03;;
14892;SDS011;7538;53.626;9.906;2022-09-09T11:27:02;3.13;;;1.70;;
14892;SDS011;7538;53.626;9.906;2022-09-09T11:32:45;2.95;;;1.58;;
14892;SDS011;7538;53.626;9.906;2022-09-09T11:35:30;3.63;;;1.50;;
14892;SDS011;7538;53.626;9.906;2022-09-09T11:38:12;3.20;;;1.50;;
14892;SDS011;7538;53.626;9.906;2022-09-09T11:40:46;2.65;;;1.42;;
14892;SDS011;7538;53.626;9.906;2022-09-09T11:43:22;5.25;;;1.67;;
14892;SDS011;7538;53.626;9.906;2022-09-09T11:45:53;2.95;;;1.80;;
14892;SDS011;7538;53.626;9.906;2022-09-09T11:48:25;5.47;;;1.83;;
14892;SDS011;7538;53.626;9.906;2022-09-09T11:50:58;2.75;;;1.50;;
14892;SDS011;7538;53.626;9.906;2022-09-09T11:53:28;4.07;;;1.92;;
14892;SDS011;7538;53.626;9.906;2022-09-09T11:56:12;3.58;;;2.05;;
14892;SDS011;7538;53.626;9.906;2022-09-09T11:58:53;3.50;;;1.67;;
14892;SDS011;7538;53.626;9.906;2022-09-09T12:01:30;5.72;;;2.00;;
14892;SDS011;7538;53.626;9.906;2022-09-09T12:04:13;2.15;;;1.50;;
14892;SDS011;7538;53.626;9.906;2022-09-09T12:07:03;3.90;;;1.50;;
14892;SDS011;7538;53.626;9.906;2022-09-09T12:09:33;4.65;;;1.80;;
14892;SDS011;7538;53.626;9.906;2022-09-09T12:12:24;3.80;;;1.48;;
14892;SDS011;7538;53.626;9.906;2022-09-09T12:14:57;3.45;;;1.50;;
14892;SDS011;7538;53.626;9.906;2022-09-09T12:17:28;2.67;;;1.48;;
14892;SDS011;7538;53.626;9.906;2022-09-09T12:20:10;4.22;;;1.58;;
14892;SDS011;7538;53.626;9.906;2022-09-09T12:22:43;3.30;;;1.67;;
14892;SDS011;7538;53.626;9.906;2022-09-09T12:25:21;4.13;;;1.77;;
14892;SDS011;7538;53.626;9.906;2022-09-09T12:28:00;4.53;;;1.80;;
14892;SDS011;7538;53.626;9.906;2022-09-09T12:30:35;2.95;;;1.70;;
14892;SDS011;7538;53.626;9.906;2022-09-09T12:33:10;3.17;;;2.00;;
14892;SDS011;7538;53.626;9.906;2022-09-09T12:35:40;3.65;;;1.80;;
14892;SDS011;7538;53.626;9.906;2022-09-09T12:38:12;3.53;;;1.80;;
14892;SDS011;7538;53.626;9.906;2022-09-09T12:40:53;3.40;;;2.13;;
14892;SDS011;7538;53.626;9.906;2022-09-09T12:43:23;6.85;;;2.42;;
14892;SDS011;7538;53.626;9.906;2022-09-09T12:45:52;3.72;;;2.08;;
14892;SDS011;7538;53.626;9.906;2022-09-09T12:48:24;3.78;;;2.35;;
14892;SDS011;7538;53.626;9.906;2022-09-09T12:50:57;3.60;;;2.20;;
14892;SDS011;7538;53.626;9.906;2022-09-09T12:53:26;3.15;;;2.22;;
14892;SDS011;7538;53.626;9.906;2022-09-09T12:55:56;6.13;;;2.15;;
14892;SDS011;7538;53.626;9.906;2022-09-09T12:58:26;4.43;;;1.90;;
14892;SDS011;7538;53.626;9.906;2022-09-09T13:00:58;6.05;;;1.83;;
14892;SDS011;7538;53.626;9.906;2022-09-09T13:03:26;3.30;;;1.80;;
14892;SDS011;7538;53.626;9.906;2022-09-09T13:05:53;2.15;;;1.85;;
14892;SDS011;7538;53.626;9.906;2022-09-09T13:08:25;3.58;;;2.17;;
14892;SDS011;7538;53.626;9.906;2022-09-09T13:10:53;5.70;;;3.97;;
14892;SDS011;7538;53.626;9.906;2022-09-09T13:13:26;7.45;;;3.80;;
14892;SDS011;7538;53.626;9.906;2022-09-09T13:15:58;5.15;;;3.72;;
14892;SDS011;7538;53.626;9.906;2022-09-09T13:18:28;5.82;;;4.68;;
14892;SDS011;7538;53.626;9.906;2022-09-09T13:20:57;21.13;;;5.90;;
14892;SDS011;7538;53.626;9.906;2022-09-09T13:23:28;28.58;;;7.32;;
14892;SDS011;7538;53.626;9.906;2022-09-09T13:25:58;42.60;;;11.43;;
14892;SDS011;7538;53.626;9.906;2022-09-09T13:28:27;14.77;;;8.63;;
14892;SDS011;7538;53.626;9.906;2022-09-09T13:30:57;14.35;;;9.40;;
14892;SDS011;7538;53.626;9.906;2022-09-09T13:33:31;19.45;;;14.35;;
14892;SDS011;7538;53.626;9.906;2022-09-09T13:36:00;22.38;;;15.82;;
14892;SDS011;7538;53.626;9.906;2022-09-09T13:38:34;23.20;;;16.13;;
14892;SDS011;7538;53.626;9.906;2022-09-09T13:41:05;10.75;;;8.05;;
14892;SDS011;7538;53.626;9.906;2022-09-09T13:43:36;7.82;;;5.65;;
14892;SDS011;7538;53.626;9.906;2022-09-09T13:46:22;6.30;;;5.70;;
14892;SDS011;7538;53.626;9.906;2022-09-09T13:48:57;11.63;;;5.13;;
14892;SDS011;7538;53.626;9.906;2022-09-09T13:51:30;10.02;;;5.80;;
14892;SDS011;7538;53.626;9.906;2022-09-09T13:54:02;10.13;;;7.50;;
14892;SDS011;7538;53.626;9.906;2022-09-09T13:56:31;12.50;;;8.65;;
14892;SDS011;7538;53.626;9.906;2022-09-09T13:59:02;18.65;;;10.90;;
14892;SDS011;7538;53.626;9.906;2022-09-09T14:01:30;17.85;;;11.13;;
14892;SDS011;7538;53.626;9.906;2022-09-09T14:03:59;15.02;;;11.70;;
14892;SDS011;7538;53.626;9.906;2022-09-09T14:06:27;18.15;;;13.15;;
14892;SDS011;7538;53.626;9.906;2022-09-09T14:08:57;26.15;;;15.00;;
14892;SDS011;7538;53.626;9.906;2022-09-09T14:11:24;24.70;;;15.38;;
14892;SDS011;7538;53.626;9.906;2022-09-09T14:13:51;27.35;;;16.70;;
14892;SDS011;7538;53.626;9.906;2022-09-09T14:16:19;36.63;;;21.02;;
14892;SDS011;7538;53.626;9.906;2022-09-09T14:18:49;34.50;;;20.35;;
14892;SDS011;7538;53.626;9.906;2022-09-09T14:21:16;25.05;;;18.70;;
14892;SDS011;7538;53.626;9.906;2022-09-09T14:23:43;33.28;;;19.50;;
14892;SDS011;7538;53.626;9.906;2022-09-09T14:26:14;35.13;;;20.42;;
14892;SDS011;7538;53.626;9.906;2022-09-09T14:28:46;32.97;;;21.48;;
14892;SDS011;7538;53.626;9.906;2022-09-09T14:31:27;31.38;;;20.83;;
14892;SDS011;7538;53.626;9.906;2022-09-09T14:34:07;30.67;;;22.25;;
14892;SDS011;7538;53.626;9.906;2022-09-09T14:36:44;36.97;;;23.13;;
14892;SDS011;7538;53.626;9.906;2022-09-09T14:39:15;30.58;;;19.52;;
14892;SDS011;7538;53.626;9.906;2022-09-09T14:41:42;37.20;;;20.27;;
14892;SDS011;7538;53.626;9.906;2022-09-09T14:44:10;27.83;;;18.35;;
14892;SDS011;7538;53.626;9.906;2022-09-09T14:46:38;21.00;;;17.55;;
14892;SDS011;7538;53.626;9.906;2022-09-09T14:49:07;29.55;;;18.52;;
14892;SDS011;7538;53.626;9.906;2022-09-09T14:51:35;33.55;;;19.88;;
14892;SDS011;7538;53.626;9.906;2022-09-09T14:54:02;34.30;;;19.52;;
14892;SDS011;7538;53.626;9.906;2022-09-09T14:56:30;26.45;;;16.30;;
14892;SDS011;7538;53.626;9.906;2022-09-09T14:58:59;24.73;;;16.73;;
14892;SDS011;7538;53.626;9.906;2022-09-09T15:01:29;19.92;;;15.70;;
14892;SDS011;7538;53.626;9.906;2022-09-09T15:03:59;20.20;;;14.52;;
14892;SDS011;7538;53.626;9.906;2022-09-09T15:06:27;23.60;;;16.15;;
14892;SDS011;7538;53.626;9.906;2022-09-09T15:08:55;22.73;;;15.93;;
14892;SDS011;7538;53.626;9.906;2022-09-09T15:11:25;28.52;;;18.15;;
14892;SDS011;7538;53.626;9.906;2022-09-09T15:13:53;27.55;;;17.88;;
14892;SDS011;7538;53.626;9.906;2022-09-09T15:16:21;27.90;;;18.52;;
14892;SDS011;7538;53.626;9.906;2022-09-09T15:18:50;21.70;;;16.10;;
14892;SDS011;7538;53.626;9.906;2022-09-09T15:21:21;21.55;;;13.20;;
14892;SDS011;7538;53.626;9.906;2022-09-09T15:23:49;17.27;;;12.23;;